Boone, CO

9:35 PM MDT on August 30, 2014 (GMT -0600)
Pueblo Memorial | Change Station
CLOSE
Current Station
Airport
Location: Pueblo,
Elevation: 4721 ft
Nearby Weather Stations

Elev 4721 ft 38.29 °N, 104.50 °W | Updated 42 minutes ago

Mostly Cloudy
Mostly Cloudy
82 °F
Feels Like 82 °F
N
4
Wind Variable Wind from Variable

Today
High -- | Low -- °F
--% Chance of Precip.
Yesterday
High -- | Low -- °F
Precip. -- in
6:24 AM 7:29 PM
Waxing Crescent, 27% visible
Pressure 29.75 in
Visibility 10.0 miles
Clouds Mostly Cloudy 12000 ft
Dew Point 39 °F
Humidity 22%
Rainfall 0.00 in
Snow Depth Not available.
UV 0 out of 12
Pollen 10.20 out of 12
Air Quality Not available.
Flu Activity Not available.
METAR KPUB 310253Z VRB03KT 10SM BKN120 28/04 A2994 RMK AO2 SLP072 T02780039 53012

More Conditions Fewer Conditions

Pressure 29.75 in
Visibility 10.0 miles
Clouds Mostly Cloudy 12000 ft
Dew Point 39 °F
Humidity 22%
Rainfall 0.00 in
Snow Depth Not available.
UV 0 out of 12
Pollen 10.20 out of 12
Air Quality Not available.
Flu Activity Not available.
METAR KPUB 310253Z VRB03KT 10SM BKN120 28/04 A2994 RMK AO2 SLP072 T02780039 53012

More Conditions Fewer Conditions

10-Day Weather Forecast

Almanac

Astronomy

Aug. 30, 2014 Rise Set
Actual Time 6:24 AM MDT 7:29 PM MDT
Civil Twilight 5:57 AM MDT 7:56 PM MDT
Nautical Twilight 5:25 AM MDT 8:28 PM MDT
Astronomical Twilight 4:51 AM MDT 9:02 PM MDT
Moon 11:10 AM MDT (8/30) 10:10 PM MDT (8/30)
Length of Visible Light 13h 59m
Length of Day
13h 04m
Tomorrow will be 2m 22s shorter.
Waxing Crescent, 27% of the Moon is Illuminated
Today
Waxing Crescent
Sep 2
First Quarter
Sep 8
Full
Sep 15
Last Quarter
Sep 24
New

Today's Extremes

State Highs State Lows

Community

WunderPhotos

Upload Photos

1,748,772 photos uploaded!

Nearby

Snow Depth

Station Depth Elevation
Medano Pass 0 in 9620 ft
Apishapa 0 in 10000 ft
Trinchera 0 in 10860 ft
Culebra #2 0 in 10500 ft
Rough And Tumble 1 in 10360 ft

Earthquake Activity

City Distance Mag. Time & Date
No recent earthquake activity has been reported nearby.
Minimum magnitude displayed is 2.5.

Coastal Water Temperatures

Place Temperature
No Stations Reporting

Nearby Weather Stations